• Join FlightAware (Why Join?)
  • Login
  • US Flag 
02:47PM EST


 

Airport Tracker/Info


-or-


 

Live Flight TrackerFlight Track Log ✈ ASQ4633 ✈ 17-Apr-2013 ✈ KBTV - KEWR

Flight Track Log - Related Links

Times and Time Zones

All times are in EDT time to prevent confusion due to time zone crossing. See the ASQ4633 flight status page for this flight to view local times or setup timezone preferences in your user account.

Time Position Orientation Groundspeed Altitude Reporting Facility
EDT Latitude Longitude Course Direction KTS MPH feet Rate Location/Type
03:47PM 44.3394 -73.2819 190° South 277 319 7,600  Level Boston Center
03:48PM 44.2622 -73.3039 192° South 277 319 10,200 1,800 Climbing Boston Center
03:49PM 44.1115 -73.2721 190° South  Level FlightAware Approximate
03:49PM 44.1808 -73.3289 192° South 287 330 11,200  Level Boston Center
03:50PM 44.0397 -73.2941 196° South  Level FlightAware Approximate
03:50PM 44.0825 -73.3592 192° South 333 383 12,100  Level Boston Center
03:51PM 43.9691 -73.3224 196° South  Level FlightAware Approximate
03:51PM 43.9886 -73.3867 192° South 357 411 13,600  Level Boston Center
03:52PM 43.8758 -73.4222 193° South 370 426 15,400 1,620 Climbing Boston Center
03:53PM 43.7756 -73.4494 191° South 370 426 16,900 1,200 Climbing Boston Center
03:54PM 43.6731 -73.4792 192° South 370 426 17,900 1,140 Climbing Boston Center
03:55PM 43.5814 -73.5033 191° South 375 432 19,200 1,440 Climbing Boston Center
03:56PM 43.4769 -73.5303 191° South 375 432 20,800 1,380 Climbing Boston Center
03:57PM 43.3703 -73.5653 193° South 381 438 22,000 540 Climbing Boston Center
03:58PM 43.2553 -73.5917 189° South 402 463 22,000  Level Boston Center
03:59PM 43.1381 -73.6322 194° South 424 488 22,000  Level Boston Center
04:00PM 43.0167 -73.6894 199° South 447 514 22,000  Level Boston Center
04:01PM 42.8994 -73.7411 198° South 452 520 22,000 -1,080 Level Boston Center
04:02PM 42.7822 -73.7922 198° South 447 514 19,900 -2,040 Descending Boston Center
04:03PM 42.6711 -73.8406 198° South 435 501 17,900 -2,040 Descending Boston Center
04:04PM 42.5517 -73.8917 197° South 420 483 16,000 -1,020 Descending Boston Center
04:05PM 42.4425 -73.9397 198° South 413 475 16,000  Level Boston Center
04:06PM 42.3314 -73.9875 198° South 425 489 16,000  Level Boston Center
04:07PM 42.2286 -74.0328 198° South 430 495 16,000  Level Boston Center
04:08PM 42.1069 -74.0911 200° South 425 489 16,000 -180 Level Boston Center
04:09PM 41.9958 -74.1386 198° South 425 489 15,700 -840 Descending Boston Center
04:10PM 41.9014 -74.1806 198° South 420 483 14,400 -1,500 Descending Boston Center
04:11PM 41.7881 -74.2275 197° South 398 458 12,800 -1,440 Descending Boston Center
04:12PM 41.6981 -74.2500 191° South 388 447 11,500 -1,140 Descending Boston Center
04:13PM 41.5939 -74.2444 178° South 358 412 10,600 -1,380 Descending Boston Center
04:14PM 41.5306 -74.2953 211° Southwest 262 302 8,900 -1,080 Descending Boston Center
04:16PM 41.3833 -74.4000 208° Southwest 268 308 7,100 -720 Descending New York TRACON
04:17PM 41.3000 -74.4333 197° South 276 318 6,600 -1,140 Descending New York TRACON
04:18PM 41.2333 -74.4500 191° South 271 312 4,900 -1,260 Descending New York TRACON
04:19PM 41.1667 -74.4833 201° Southwest 259 298 4,100 -600 Descending New York TRACON
04:21PM 41.0833 -74.5000 189° South 261 300 3,700 -600 Descending New York TRACON
04:21PM 41.0167 -74.5167 191° South 253 291 3,000 -360 Descending New York TRACON
04:22PM 40.9500 -74.5333 191° South 256 295 3,100  Climbing New York TRACON
04:23PM 40.9000 -74.5000 153° Southeast 257 296 3,100  Level New York TRACON
04:24PM 40.8333 -74.4500 150° Southeast 250 288 3,100 -120 Level New York TRACON
04:26PM 40.7500 -74.4333 171° South 211 243 2,900 -480 Descending New York TRACON
04:27PM 40.7167 -74.3833 131° Southeast 201 231 2,100 -480 Descending New York TRACON
04:28PM 40.7167 -74.3167 90° East 182 209 2,000 -120 Descending New York TRACON